createdAt,value
2018-01-10T00:00:07.409Z,12.35
2018-01-10T00:02:33.906Z,11.18
2018-01-10T00:05:00.177Z,8.02
2018-01-10T00:07:26.438Z,9.50
2018-01-10T00:09:52.979Z,8.43
2018-01-10T00:12:19.248Z,8.05
2018-01-10T00:14:45.483Z,7.18
2018-01-10T00:17:11.756Z,7.43
2018-01-10T00:19:38.005Z,7.43
2018-01-10T00:22:04.260Z,6.68
2018-01-10T00:24:30.518Z,6.60
2018-01-10T00:26:56.785Z,5.28
2018-01-10T00:29:23.042Z,5.55
2018-01-10T00:31:49.296Z,4.87
2018-01-10T00:34:15.534Z,5.10
2018-01-10T00:36:41.790Z,4.72
2018-01-10T00:39:08.041Z,4.35
2018-01-10T00:41:34.280Z,4.68
2018-01-10T00:44:01.313Z,5.07
2018-01-10T00:46:27.592Z,5.37
2018-01-10T00:48:54.548Z,6.90
2018-01-10T00:51:21.554Z,6.05
2018-01-10T00:53:47.811Z,5.40
2018-01-10T00:56:14.062Z,5.93
2018-01-10T00:58:40.325Z,6.40
2018-01-10T01:01:07.333Z,4.70
2018-01-10T01:03:33.830Z,5.10
2018-01-10T01:06:00.799Z,5.05
2018-01-10T01:08:27.079Z,4.75
2018-01-10T01:10:53.337Z,6.00
2018-01-10T01:13:19.600Z,5.12
2018-01-10T01:15:45.833Z,5.12
2018-01-10T01:18:12.077Z,5.30
2018-01-10T01:20:38.354Z,5.03
2018-01-10T01:23:04.622Z,4.80
2018-01-10T01:25:30.895Z,4.70
2018-01-10T01:27:57.121Z,5.60
2018-01-10T01:30:23.362Z,4.80
2018-01-10T01:32:49.613Z,5.00
2018-01-10T01:35:15.865Z,4.95
2018-01-10T01:37:42.111Z,5.25
2018-01-10T01:40:08.366Z,5.05
2018-01-10T01:42:35.621Z,3.78
2018-01-10T01:45:02.643Z,4.78
2018-01-10T01:47:29.933Z,3.50
2018-01-10T01:49:56.200Z,5.00
2018-01-10T01:52:23.181Z,3.95
2018-01-10T01:54:49.436Z,4.57
2018-01-10T01:57:15.675Z,4.75
2018-01-10T01:59:41.948Z,4.43
2018-01-10T02:02:08.321Z,4.00
2018-01-10T02:04:35.288Z,4.10
2018-01-10T02:07:01.826Z,5.20
2018-01-10T02:09:28.086Z,4.25
2018-01-10T02:11:54.345Z,4.20
2018-01-10T02:14:20.595Z,4.95
2018-01-10T02:16:46.836Z,4.35
2018-01-10T02:19:13.096Z,3.85
2018-01-10T02:21:39.335Z,3.72
2018-01-10T02:24:05.572Z,4.25
2018-01-10T02:26:31.813Z,5.43
2018-01-10T02:28:58.054Z,6.28
2018-01-10T02:31:24.315Z,12.30
2018-01-10T02:33:50.563Z,7.40
2018-01-10T02:36:17.566Z,5.28
2018-01-10T02:38:43.817Z,4.93
2018-01-10T02:41:10.098Z,4.32
2018-01-10T02:43:36.340Z,4.18
2018-01-10T02:46:02.596Z,4.80
2018-01-10T02:48:29.608Z,3.70
2018-01-10T02:50:55.845Z,3.92
2018-01-10T02:53:22.080Z,2.92
2018-01-10T02:55:48.354Z,3.90
2018-01-10T02:58:14.567Z,3.40
2018-01-10T03:00:40.810Z,3.30
2018-01-10T03:03:07.075Z,3.33
2018-01-10T03:05:34.332Z,4.07
2018-01-10T03:08:00.563Z,3.30
2018-01-10T03:10:26.790Z,3.22
2018-01-10T03:12:53.059Z,3.25
2018-01-10T03:15:19.285Z,3.60
2018-01-10T03:17:45.532Z,3.55
2018-01-10T03:20:11.779Z,3.05
2018-01-10T03:22:38.045Z,3.45
2018-01-10T03:25:05.048Z,3.78
2018-01-10T03:27:31.275Z,2.78
2018-01-10T03:29:57.530Z,3.10
2018-01-10T03:32:23.780Z,3.95
2018-01-10T03:34:49.992Z,4.72
2018-01-10T03:37:16.225Z,3.87
2018-01-10T03:39:42.476Z,4.35
2018-01-10T03:42:08.694Z,6.62
2018-01-10T03:44:35.725Z,5.28
2018-01-10T03:47:01.975Z,5.40
2018-01-10T03:49:28.991Z,4.75
2018-01-10T03:51:55.245Z,6.68
2018-01-10T03:54:21.470Z,4.72
2018-01-10T03:56:47.738Z,3.85
2018-01-10T03:59:14.783Z,3.87
2018-01-10T04:01:41.038Z,4.50
2018-01-10T04:04:07.428Z,4.40
2018-01-10T04:06:33.678Z,4.43
2018-01-10T04:08:59.919Z,3.60
2018-01-10T04:11:26.147Z,2.90
2018-01-10T04:13:52.389Z,4.50
2018-01-10T04:16:18.653Z,5.95
2018-01-10T04:18:44.896Z,4.85
2018-01-10T04:21:11.115Z,4.65
2018-01-10T04:23:37.381Z,6.05
2018-01-10T04:26:03.615Z,12.63
2018-01-10T04:28:29.847Z,8.48
2018-01-10T04:30:56.111Z,6.93
2018-01-10T04:33:22.378Z,5.82
2018-01-10T04:35:48.905Z,7.62
2018-01-10T04:38:15.187Z,9.05
2018-01-10T04:40:42.150Z,7.70
2018-01-10T04:43:09.131Z,7.75
2018-01-10T04:45:35.386Z,7.45
2018-01-10T04:48:01.641Z,7.65
2018-01-10T04:50:27.904Z,7.87
2018-01-10T04:52:54.152Z,7.28
2018-01-10T04:55:21.154Z,5.97
2018-01-10T04:57:47.371Z,5.75
2018-01-10T05:00:14.384Z,6.20
2018-01-10T05:02:40.632Z,6.10
2018-01-10T05:05:06.932Z,7.82
2018-01-10T05:07:33.169Z,6.10
2018-01-10T05:09:59.413Z,6.55
2018-01-10T05:12:25.667Z,6.62
2018-01-10T05:14:51.899Z,6.40
2018-01-10T05:17:18.153Z,6.78
2018-01-10T05:19:44.411Z,8.25
2018-01-10T05:22:10.632Z,6.80
2018-01-10T05:24:36.907Z,7.75
2018-01-10T05:27:03.140Z,6.30
2018-01-10T05:29:30.753Z,6.72
2018-01-10T05:31:57.174Z,7.55
2018-01-10T05:34:24.159Z,7.50
2018-01-10T05:36:50.435Z,7.93
2018-01-10T05:39:16.682Z,10.25
2018-01-10T05:41:43.205Z,10.55
2018-01-10T05:44:09.453Z,17.62
2018-01-10T05:46:35.703Z,12.00
2018-01-10T05:49:01.955Z,5.43
2018-01-10T05:51:28.220Z,6.75
2018-01-10T05:53:54.472Z,6.70
2018-01-10T05:56:21.500Z,7.70
2018-01-10T05:58:47.727Z,11.68
2018-01-10T06:01:14.011Z,7.80
2018-01-10T06:03:40.380Z,6.10
2018-01-10T06:06:06.680Z,5.87
2018-01-10T06:08:32.908Z,7.10
2018-01-10T06:10:59.173Z,7.15
2018-01-10T06:13:25.442Z,5.65
2018-01-10T06:15:51.679Z,5.37
2018-01-10T06:18:17.964Z,5.95
2018-01-10T06:20:44.222Z,6.55
2018-01-10T06:23:10.506Z,6.65
2018-01-10T06:25:36.767Z,7.10
2018-01-10T06:28:03.017Z,8.23
2018-01-10T06:30:29.258Z,7.12
2018-01-10T06:32:55.514Z,8.80
2018-01-10T06:35:21.772Z,7.75
2018-01-10T06:37:47.995Z,8.05
2018-01-10T06:40:14.259Z,7.35
2018-01-10T06:42:40.521Z,9.55
2018-01-10T06:45:07.499Z,12.30
2018-01-10T06:47:33.743Z,11.02
2018-01-10T06:50:00.030Z,11.05
2018-01-10T06:52:26.318Z,14.40
2018-01-10T06:54:52.622Z,12.93
2018-01-10T06:57:18.857Z,9.95
2018-01-10T06:59:45.095Z,12.43
2018-01-10T07:02:11.452Z,15.15
2018-01-10T07:04:37.696Z,15.20
2018-01-10T07:07:03.967Z,12.45
2018-01-10T07:09:30.985Z,11.12
2018-01-10T07:11:57.223Z,10.60
2018-01-10T07:14:23.511Z,10.45
2018-01-10T07:16:49.780Z,11.48
2018-01-10T07:19:16.011Z,9.50
2018-01-10T07:21:42.248Z,12.80
2018-01-10T07:24:08.479Z,9.65
2018-01-10T07:26:34.695Z,9.50
2018-01-10T07:29:00.950Z,8.07
2018-01-10T07:31:27.193Z,8.60
2018-01-10T07:33:53.450Z,9.85
2018-01-10T07:36:19.707Z,9.50
2018-01-10T07:38:45.938Z,10.10
2018-01-10T07:41:12.258Z,8.77
2018-01-10T07:43:38.502Z,7.80
2018-01-10T07:46:04.831Z,9.45
2018-01-10T07:48:31.039Z,7.03
2018-01-10T07:50:57.280Z,7.53
2018-01-10T07:53:23.540Z,11.18
2018-01-10T07:55:49.796Z,15.70
2018-01-10T07:58:16.055Z,14.90
2018-01-10T08:00:42.284Z,15.50
2018-01-10T08:03:08.545Z,13.90
2018-01-10T08:05:34.813Z,12.88
2018-01-10T08:08:01.074Z,8.93
2018-01-10T08:10:28.069Z,16.87
2018-01-10T08:12:54.300Z,16.92
2018-01-10T08:15:20.606Z,24.48
2018-01-10T08:17:46.864Z,29.42
2018-01-10T08:20:13.121Z,18.30
2018-01-10T08:22:39.409Z,15.40
2018-01-10T08:25:05.656Z,12.63
2018-01-10T08:27:31.909Z,12.23
2018-01-10T08:29:58.164Z,12.07
2018-01-10T08:32:25.182Z,9.75
2018-01-10T08:34:51.419Z,9.80
2018-01-10T08:37:17.679Z,10.23
2018-01-10T08:39:43.956Z,8.27
2018-01-10T08:42:10.201Z,9.00
2018-01-10T08:44:36.471Z,8.48
2018-01-10T08:47:02.737Z,8.02
2018-01-10T08:49:28.988Z,7.93
2018-01-10T08:51:55.262Z,7.30
2018-01-10T08:54:21.490Z,7.82
2018-01-10T08:56:48.488Z,7.20
2018-01-10T08:59:14.717Z,7.30
2018-01-10T09:01:40.995Z,7.22
2018-01-10T09:04:07.318Z,6.35
2018-01-10T09:06:33.587Z,5.90
2018-01-10T09:08:59.881Z,6.10
2018-01-10T09:11:26.144Z,5.62
2018-01-10T09:13:52.417Z,6.20
2018-01-10T09:16:18.764Z,5.95
2018-01-10T09:18:45.031Z,6.82
2018-01-10T09:21:11.306Z,6.32
2018-01-10T09:23:37.550Z,6.62
2018-01-10T09:26:03.830Z,6.72
2018-01-10T09:28:30.071Z,5.93
2018-01-10T09:30:56.297Z,6.30
2018-01-10T09:33:22.588Z,6.78
2018-01-10T09:35:48.831Z,6.65
2018-01-10T09:38:15.097Z,7.47
2018-01-10T09:40:41.332Z,6.35
2018-01-10T09:43:07.580Z,7.65
2018-01-10T09:45:33.852Z,5.87
2018-01-10T09:48:00.072Z,7.32
2018-01-10T09:50:26.338Z,6.60
2018-01-10T09:52:52.581Z,7.55
2018-01-10T09:55:18.813Z,7.65
2018-01-10T09:57:45.065Z,8.05
2018-01-10T10:00:11.332Z,7.90
2018-01-10T10:02:37.694Z,7.75
2018-01-10T10:05:03.954Z,7.60
2018-01-10T10:07:30.488Z,7.37
2018-01-10T10:09:56.745Z,9.05
2018-01-10T10:12:23.000Z,8.05
2018-01-10T10:14:49.273Z,7.62
2018-01-10T10:17:16.274Z,7.45
2018-01-10T10:19:42.543Z,6.53
2018-01-10T10:22:08.786Z,6.85
2018-01-10T10:24:35.032Z,6.30
2018-01-10T10:27:01.268Z,7.12
2018-01-10T10:29:27.511Z,7.25
2018-01-10T10:31:53.795Z,6.43
2018-01-10T10:34:20.056Z,5.53
2018-01-10T10:36:46.346Z,6.93
2018-01-10T10:39:13.322Z,7.53
2018-01-10T10:41:40.332Z,7.28
2018-01-10T10:44:06.597Z,6.37
2018-01-10T10:46:32.864Z,5.75
2018-01-10T10:48:59.119Z,5.75
2018-01-10T10:51:25.383Z,5.65
2018-01-10T10:53:51.928Z,5.10
2018-01-10T10:56:18.193Z,5.12
2018-01-10T10:58:44.455Z,4.20
2018-01-10T11:01:11.538Z,4.37
2018-01-10T11:03:37.835Z,4.85
2018-01-10T11:06:04.113Z,5.80
2018-01-10T11:08:30.359Z,4.43
2018-01-10T11:10:56.632Z,4.40
2018-01-10T11:13:22.895Z,4.78
2018-01-10T11:15:49.125Z,4.43
2018-01-10T11:18:15.390Z,4.95
2018-01-10T11:20:41.634Z,5.10
2018-01-10T11:23:07.878Z,4.78
2018-01-10T11:25:34.148Z,4.95
2018-01-10T11:28:00.423Z,5.00
2018-01-10T11:30:26.740Z,4.18
2018-01-10T11:32:53.005Z,5.35
2018-01-10T11:35:19.292Z,5.07
2018-01-10T11:37:46.294Z,4.55
2018-01-10T11:40:12.537Z,4.50
2018-01-10T11:42:38.798Z,4.45
2018-01-10T11:45:05.058Z,5.40
2018-01-10T11:47:31.312Z,4.60
2018-01-10T11:49:58.287Z,4.85
2018-01-10T11:52:24.557Z,4.03
2018-01-10T11:54:50.825Z,4.95
2018-01-10T11:57:17.046Z,4.78
2018-01-10T11:59:43.332Z,4.70
2018-01-10T12:02:10.366Z,4.80
2018-01-10T12:04:36.639Z,5.45
2018-01-10T12:07:03.670Z,4.57
2018-01-10T12:09:29.877Z,5.60
2018-01-10T12:11:56.147Z,5.15
2018-01-10T12:14:22.370Z,5.60
2018-01-10T12:16:48.884Z,4.70
2018-01-10T12:19:15.125Z,5.12
2018-01-10T12:21:41.383Z,5.72
2018-01-10T12:24:07.628Z,4.65
2018-01-10T12:26:33.860Z,5.20
2018-01-10T12:29:00.119Z,8.25
2018-01-10T12:31:26.348Z,6.43
2018-01-10T12:33:52.586Z,5.12
2018-01-10T12:36:18.834Z,7.00
2018-01-10T12:38:45.087Z,5.40
2018-01-10T12:41:11.331Z,5.75
2018-01-10T12:43:37.576Z,4.85
2018-01-10T12:46:03.855Z,5.05
2018-01-10T12:48:30.820Z,4.65
2018-01-10T12:50:57.065Z,4.30
2018-01-10T12:53:23.314Z,5.22
2018-01-10T12:55:49.612Z,4.82
2018-01-10T12:58:15.851Z,4.47
2018-01-10T13:00:42.085Z,4.10
2018-01-10T13:03:08.380Z,4.32
2018-01-10T13:05:34.637Z,4.60
2018-01-10T13:08:00.868Z,4.90
2018-01-10T13:10:27.124Z,4.70
2018-01-10T13:12:53.358Z,4.47
2018-01-10T13:15:19.607Z,5.10
2018-01-10T13:17:45.859Z,4.30
2018-01-10T13:20:12.104Z,5.10
2018-01-10T13:22:38.383Z,5.12
2018-01-10T13:25:05.384Z,5.05
2018-01-10T13:27:31.635Z,4.03
2018-01-10T13:29:57.872Z,5.57
2018-01-10T13:32:24.133Z,3.83
2018-01-10T13:34:50.392Z,3.72
2018-01-10T13:37:17.398Z,5.55
2018-01-10T13:39:43.654Z,4.60
2018-01-10T13:42:11.036Z,4.22
2018-01-10T13:44:37.321Z,4.32
2018-01-10T13:47:03.612Z,4.55
2018-01-10T13:49:29.860Z,4.35
2018-01-10T13:51:56.186Z,4.32
2018-01-10T13:54:22.404Z,4.97
2018-01-10T13:56:48.676Z,4.62
2018-01-10T13:59:14.933Z,4.85
2018-01-10T14:01:41.201Z,5.12
2018-01-10T14:04:07.550Z,4.97
2018-01-10T14:06:34.533Z,5.55
2018-01-10T14:09:00.788Z,5.00
2018-01-10T14:11:27.020Z,7.95
2018-01-10T14:13:53.278Z,4.97
2018-01-10T14:16:19.567Z,5.30
2018-01-10T14:18:46.554Z,4.65
2018-01-10T14:21:12.804Z,5.60
2018-01-10T14:23:39.087Z,6.68
2018-01-10T14:26:05.356Z,5.78
2018-01-10T14:28:31.640Z,5.07
2018-01-10T14:30:57.894Z,4.87
2018-01-10T14:33:24.167Z,4.72
2018-01-10T14:35:51.174Z,4.97
2018-01-10T14:38:17.403Z,4.65
2018-01-10T14:40:43.658Z,6.60
2018-01-10T14:43:09.951Z,5.20
2018-01-10T14:45:36.950Z,5.05
2018-01-10T14:48:03.237Z,4.93
2018-01-10T14:50:29.493Z,4.72
2018-01-10T14:52:56.473Z,5.85
2018-01-10T14:55:22.736Z,5.35
2018-01-10T14:57:48.986Z,9.02
2018-01-10T15:00:15.297Z,9.50
2018-01-10T15:02:41.606Z,9.18
2018-01-10T15:05:08.595Z,5.82
2018-01-10T15:07:34.856Z,6.15
2018-01-10T15:10:01.100Z,6.95
2018-01-10T15:12:27.360Z,5.87
2018-01-10T15:14:53.609Z,7.10
2018-01-10T15:17:19.872Z,7.80
2018-01-10T15:19:46.852Z,10.55
2018-01-10T15:22:13.128Z,8.75
2018-01-10T15:24:39.375Z,7.25
2018-01-10T15:27:05.694Z,6.45
2018-01-10T15:29:31.949Z,7.15
2018-01-10T15:31:58.179Z,5.75
2018-01-10T15:34:24.464Z,5.75
2018-01-10T15:36:50.717Z,5.75
2018-01-10T15:39:17.758Z,5.53
2018-01-10T15:41:44.027Z,4.93
2018-01-10T15:44:11.004Z,5.60
2018-01-10T15:46:37.321Z,5.47
2018-01-10T15:49:04.325Z,6.60
2018-01-10T15:51:30.611Z,6.28
2018-01-10T15:53:56.873Z,5.65
2018-01-10T15:56:23.115Z,5.80
2018-01-10T15:58:49.408Z,5.60
2018-01-10T16:01:15.672Z,5.97
2018-01-10T16:03:42.032Z,5.55
2018-01-10T16:06:09.036Z,5.82
2018-01-10T16:08:35.349Z,6.72
2018-01-10T16:11:01.636Z,6.35
2018-01-10T16:13:27.886Z,6.32
2018-01-10T16:15:54.145Z,6.90
2018-01-10T16:18:21.134Z,5.80
2018-01-10T16:20:47.425Z,7.05
2018-01-10T16:23:13.668Z,6.57
2018-01-10T16:25:39.915Z,7.55
2018-01-10T16:28:06.183Z,7.55
2018-01-10T16:30:33.171Z,7.30
2018-01-10T16:32:59.446Z,9.77
2018-01-10T16:35:25.703Z,10.70
2018-01-10T16:37:52.247Z,10.65
2018-01-10T16:40:18.493Z,8.43
2018-01-10T16:42:44.780Z,7.85
2018-01-10T16:45:11.064Z,8.30
2018-01-10T16:47:37.318Z,8.25
2018-01-10T16:50:04.333Z,9.60
2018-01-10T16:52:30.619Z,10.15
2018-01-10T16:54:56.865Z,10.10
2018-01-10T16:57:23.879Z,8.60
2018-01-10T16:59:50.127Z,10.00
2018-01-10T17:02:16.455Z,10.15
2018-01-10T17:04:42.727Z,10.20
2018-01-10T17:07:09.042Z,10.88
2018-01-10T17:09:35.315Z,12.18
2018-01-10T17:12:01.567Z,10.95
2018-01-10T17:14:28.620Z,12.37
2018-01-10T17:16:54.967Z,11.70
2018-01-10T17:19:21.978Z,10.68
2018-01-10T17:21:48.242Z,12.68
2018-01-10T17:24:14.529Z,10.30
2018-01-10T17:26:40.797Z,11.30
2018-01-10T17:29:07.061Z,12.23
2018-01-10T17:31:33.339Z,11.48
2018-01-10T17:34:00.352Z,14.30
2018-01-10T17:36:26.623Z,20.33
2018-01-10T17:38:52.900Z,27.83
2018-01-10T17:41:19.468Z,29.50
2018-01-10T17:43:45.788Z,32.28
2018-01-10T17:46:12.061Z,34.10
2018-01-10T17:48:38.401Z,34.30
2018-01-10T17:51:04.667Z,34.80
2018-01-10T17:53:30.970Z,34.38
2018-01-10T17:55:57.198Z,36.38
2018-01-10T17:58:23.486Z,37.70
2018-01-10T18:00:49.807Z,40.58
2018-01-10T18:03:16.119Z,41.20
2018-01-10T18:05:42.484Z,44.53
2018-01-10T18:08:08.757Z,37.20
2018-01-10T18:10:35.065Z,42.95
2018-01-10T18:13:01.336Z,34.95
2018-01-10T18:15:27.658Z,45.70
2018-01-10T18:17:53.955Z,35.50
2018-01-10T18:20:20.942Z,36.50
2018-01-10T18:22:47.288Z,36.97
2018-01-10T18:25:13.562Z,32.55
2018-01-10T18:27:39.861Z,35.70
2018-01-10T18:30:06.159Z,41.50
2018-01-10T18:32:32.541Z,31.20
2018-01-10T18:34:58.867Z,30.12
2018-01-10T18:37:25.246Z,29.45
2018-01-10T18:39:51.556Z,30.40
2018-01-10T18:42:18.631Z,28.08
2018-01-10T18:44:44.971Z,29.87
2018-01-10T18:47:11.295Z,28.27
2018-01-10T18:49:38.364Z,28.35
2018-01-10T18:52:05.494Z,26.85
2018-01-10T18:54:31.824Z,29.25
2018-01-10T18:56:58.154Z,28.35
2018-01-10T18:59:24.573Z,28.75
2018-01-10T19:01:50.964Z,30.73
2018-01-10T19:04:17.426Z,28.23
2018-01-10T19:06:43.743Z,28.35
2018-01-10T19:09:10.114Z,30.42
2018-01-10T19:11:37.234Z,35.03
2018-01-10T19:14:03.556Z,28.38
2018-01-10T19:16:30.074Z,29.42
2018-01-10T19:18:57.142Z,32.25
2018-01-10T19:21:24.266Z,32.00
2018-01-10T19:23:50.602Z,30.33
2018-01-10T19:26:17.067Z,31.58
2018-01-10T19:28:43.477Z,32.67
2018-01-10T19:31:09.879Z,30.42
2018-01-10T19:33:37.053Z,31.75
2018-01-10T19:36:10.223Z,25.73
2018-01-10T19:38:36.849Z,28.90
2018-01-10T19:41:03.289Z,26.95
2018-01-10T19:43:29.658Z,25.67
2018-01-10T19:45:56.007Z,22.83
2018-01-10T19:48:22.387Z,27.15
2018-01-10T19:50:48.898Z,23.80
2018-01-10T19:53:15.257Z,26.58
2018-01-10T19:55:42.338Z,22.90
2018-01-10T19:58:08.705Z,28.52
2018-01-10T20:00:36.034Z,24.23
2018-01-10T20:03:02.483Z,23.55
2018-01-10T20:05:28.890Z,24.33
2018-01-10T20:07:55.256Z,26.00
2018-01-10T20:10:22.368Z,23.30
2018-01-10T20:12:48.717Z,22.42
2018-01-10T20:15:15.073Z,26.58
2018-01-10T20:17:41.460Z,27.80
2018-01-10T20:20:07.843Z,25.42
2018-01-10T20:22:34.188Z,24.08
2018-01-10T20:25:00.580Z,26.02
2018-01-10T20:27:27.688Z,27.83
2018-01-10T20:29:54.026Z,26.00
2018-01-10T20:32:20.383Z,25.70
2018-01-10T20:34:46.747Z,29.00
2018-01-10T20:37:13.101Z,21.20
2018-01-10T20:39:39.414Z,23.33
2018-01-10T20:42:05.796Z,23.62
2018-01-10T20:44:32.129Z,23.15
2018-01-10T20:46:58.472Z,22.25
2018-01-10T20:49:24.843Z,24.45
2018-01-10T20:51:51.233Z,22.40
2018-01-10T20:54:17.626Z,21.85
2018-01-10T20:56:44.667Z,22.15
2018-01-10T20:59:11.735Z,21.55
2018-01-10T21:01:38.800Z,22.37
2018-01-10T21:04:05.225Z,26.70
2018-01-10T21:06:31.578Z,22.05
2018-01-10T21:08:58.615Z,20.98
2018-01-10T21:11:24.952Z,28.45
2018-01-10T21:13:51.298Z,20.12
2018-01-10T21:16:17.624Z,28.25
2018-01-10T21:18:43.967Z,32.22
2018-01-10T21:21:10.341Z,28.65
2018-01-10T21:23:36.673Z,26.90
2018-01-10T21:26:03.017Z,23.55
2018-01-10T21:28:29.351Z,24.50
2018-01-10T21:30:55.630Z,27.60
2018-01-10T21:33:22.632Z,26.90
2018-01-10T21:35:48.911Z,24.60
2018-01-10T21:38:15.972Z,28.52
2018-01-10T21:40:42.229Z,23.73
2018-01-10T21:43:09.305Z,27.08
2018-01-10T21:45:35.608Z,23.65
2018-01-10T21:48:01.914Z,22.50
2018-01-10T21:50:28.192Z,21.50
2018-01-10T21:52:54.514Z,19.90
2018-01-10T21:55:20.801Z,16.70
2018-01-10T21:57:47.811Z,17.25
2018-01-10T22:00:14.110Z,20.02
2018-01-10T22:02:40.490Z,19.42
2018-01-10T22:05:06.752Z,22.08
2018-01-10T22:07:32.970Z,16.87
2018-01-10T22:09:59.252Z,17.52
2018-01-10T22:12:25.502Z,17.35
2018-01-10T22:14:52.513Z,15.85
2018-01-10T22:17:18.772Z,16.75
2018-01-10T22:19:45.038Z,17.08
2018-01-10T22:22:12.048Z,16.50
2018-01-10T22:24:38.304Z,17.23
2018-01-10T22:27:04.869Z,13.20
2018-01-10T22:29:31.137Z,14.32
2018-01-10T22:31:58.138Z,15.15
2018-01-10T22:34:24.438Z,15.25
2018-01-10T22:36:51.414Z,14.63
2018-01-10T22:39:17.972Z,13.02
2018-01-10T22:41:44.237Z,15.07
2018-01-10T22:44:10.456Z,15.60
2018-01-10T22:46:36.698Z,20.05
2018-01-10T22:49:02.947Z,18.75
2018-01-10T22:51:29.221Z,16.23
2018-01-10T22:53:55.448Z,22.65
2018-01-10T22:56:21.685Z,21.23
2018-01-10T22:58:47.993Z,20.67
2018-01-10T23:01:14.258Z,18.25
2018-01-10T23:03:40.541Z,17.10
2018-01-10T23:06:07.573Z,17.37
2018-01-10T23:08:33.808Z,20.73
2018-01-10T23:11:00.078Z,17.48
2018-01-10T23:13:26.325Z,15.20
2018-01-10T23:15:53.324Z,16.50
2018-01-10T23:18:19.573Z,14.63
2018-01-10T23:20:45.802Z,15.45
2018-01-10T23:23:14.776Z,16.30
2018-01-10T23:25:41.760Z,15.45
2018-01-10T23:28:07.986Z,18.12
2018-01-10T23:30:34.252Z,17.48
2018-01-10T23:33:00.512Z,15.07
2018-01-10T23:35:26.780Z,16.87
2018-01-10T23:37:53.023Z,15.45
2018-01-10T23:40:19.292Z,15.80
2018-01-10T23:42:45.564Z,16.80
2018-01-10T23:45:11.811Z,16.83
2018-01-10T23:47:38.065Z,17.37
2018-01-10T23:50:04.286Z,15.85
2018-01-10T23:52:30.801Z,15.75
2018-01-10T23:54:57.760Z,16.52
2018-01-10T23:57:24.016Z,18.05
2018-01-10T23:59:50.279Z,16.25
